Time;durP1;ratioP1;P1;durP2;ratioP2;P2;SDS_P1;SDS_P2;PMS_P1;PMS_P2;Temp;Humidity;BMP_temperature;BMP_pressure;BME280_temperature;BME280_humidity;BME280_pressure;Samples;Min_cycle;Max_cycle;Signal;HPM_P1;HPM_P2
2023/04/28 00:01:13;;;;;;;9.70;4.90;;;7.70;99.90;;;;;;4955624;28;20035;-79
2023/04/28 00:03:39;;;;;;;7.87;5.50;;;7.70;99.90;;;;;;4956173;28;20030;-79
2023/04/28 00:06:05;;;;;;;13.77;5.20;;;7.60;99.90;;;;;;4955740;28;20899;-79
2023/04/28 00:08:30;;;;;;;9.00;5.40;;;7.70;99.90;;;;;;4955501;28;20049;-79
2023/04/28 00:10:56;;;;;;;9.67;5.47;;;7.60;99.90;;;;;;4955752;28;20419;-79
2023/04/28 00:13:22;;;;;;;7.80;5.47;;;7.60;99.90;;;;;;4955854;28;20122;-79
2023/04/28 00:15:49;;;;;;;9.70;5.50;;;7.60;99.90;;;;;;4955438;28;20042;-79
2023/04/28 00:18:15;;;;;;;9.93;5.23;;;7.60;99.90;;;;;;4955634;28;20035;-79
2023/04/28 00:20:40;;;;;;;8.57;5.43;;;7.60;99.90;;;;;;4955982;28;20042;-79
2023/04/28 00:23:06;;;;;;;10.77;6.07;;;7.60;99.90;;;;;;4955955;28;21355;-79
2023/04/28 00:25:32;;;;;;;7.97;5.67;;;7.60;99.90;;;;;;4955311;28;20509;-80
2023/04/28 00:27:57;;;;;;;8.20;5.17;;;7.60;99.90;;;;;;4955344;28;20399;-79
2023/04/28 00:30:24;;;;;;;8.27;5.40;;;7.60;99.90;;;;;;4955072;28;20034;-79
2023/04/28 00:32:49;;;;;;;7.83;5.93;;;7.60;99.90;;;;;;4955730;28;20050;-79
2023/04/28 00:35:15;;;;;;;8.03;4.63;;;7.60;99.90;;;;;;4955401;28;20123;-79
2023/04/28 00:37:40;;;;;;;9.10;5.60;;;7.60;99.90;;;;;;4954958;28;20416;-79
2023/04/28 00:40:06;;;;;;;12.37;6.27;;;7.60;99.90;;;;;;4955344;28;20031;-79
2023/04/28 00:42:32;;;;;;;8.00;4.80;;;7.60;99.90;;;;;;4955242;28;20123;-79
2023/04/28 00:44:58;;;;;;;6.73;4.43;;;7.60;99.90;;;;;;4955579;28;20027;-78
2023/04/28 00:47:23;;;;;;;8.07;4.57;;;7.60;99.90;;;;;;4955174;28;20054;-79
2023/04/28 00:49:49;;;;;;;7.83;4.70;;;7.60;99.90;;;;;;4954737;28;20369;-79
2023/04/28 00:52:15;;;;;;;6.83;5.10;;;7.60;99.90;;;;;;4955260;28;20027;-79
2023/04/28 00:54:43;;;;;;;7.40;4.90;;;7.60;99.90;;;;;;4954800;28;20186;-79
2023/04/28 00:57:09;;;;;;;6.53;4.37;;;7.60;99.90;;;;;;4954387;28;20046;-78
2023/04/28 00:59:35;;;;;;;11.67;5.07;;;7.60;99.90;;;;;;4954654;28;20085;-79
2023/04/28 01:02:02;;;;;;;7.80;4.27;;;7.60;99.90;;;;;;4953800;28;20039;-79
2023/04/28 01:04:29;;;;;;;8.00;4.37;;;7.60;99.90;;;;;;4954821;28;20046;-79
2023/04/28 01:06:55;;;;;;;6.50;4.37;;;7.70;99.90;;;;;;4954135;28;20065;-79
2023/04/28 01:09:21;;;;;;;9.13;4.87;;;7.60;99.90;;;;;;4954436;28;20456;-79
2023/04/28 01:11:46;;;;;;;6.40;4.50;;;7.70;99.90;;;;;;4954250;28;20023;-79
2023/04/28 01:14:12;;;;;;;5.47;3.70;;;7.70;99.90;;;;;;4954510;28;20101;-79
2023/04/28 01:16:38;;;;;;;8.83;4.37;;;7.70;99.90;;;;;;4954585;28;20170;-79
2023/04/28 01:19:13;;;;;;;6.93;4.20;;;7.70;99.90;;;;;;4954797;28;20031;-79
2023/04/28 01:21:39;;;;;;;4.95;4.45;;;7.70;99.90;;;;;;4954651;28;20050;-79
2023/04/28 01:24:05;;;;;;;7.50;4.50;;;7.70;99.90;;;;;;4954887;28;20030;-79
2023/04/28 01:26:31;;;;;;;9.20;4.03;;;7.70;99.90;;;;;;4954683;28;20062;-79
2023/04/28 01:28:56;;;;;;;8.77;4.73;;;7.70;99.90;;;;;;4954321;28;20142;-79
2023/04/28 01:31:22;;;;;;;6.63;4.13;;;7.70;99.90;;;;;;4954160;28;21375;-79
2023/04/28 01:33:47;;;;;;;10.13;4.90;;;7.70;99.90;;;;;;4954226;28;20502;-79
2023/04/28 01:36:13;;;;;;;7.90;4.20;;;7.70;99.90;;;;;;4953925;28;20472;-79
2023/04/28 01:38:38;;;;;;;7.53;4.10;;;7.70;99.90;;;;;;4953933;28;20036;-79
2023/04/28 01:41:04;;;;;;;6.30;4.17;;;7.70;99.90;;;;;;4954143;28;20039;-78
2023/04/28 01:43:29;;;;;;;8.07;4.20;;;7.70;99.90;;;;;;4953643;28;20484;-79
2023/04/28 01:45:55;;;;;;;6.00;4.30;;;7.70;99.90;;;;;;4953984;28;20368;-78
2023/04/28 01:48:21;;;;;;;7.20;4.87;;;7.80;99.90;;;;;;4954687;28;20023;-79
2023/04/28 01:50:46;;;;;;;6.50;3.83;;;7.80;99.90;;;;;;4953150;28;20058;-79
2023/04/28 01:53:12;;;;;;;7.10;4.20;;;7.80;99.90;;;;;;4954392;28;20023;-79
2023/04/28 01:55:38;;;;;;;6.57;4.00;;;7.80;99.90;;;;;;4953506;28;20050;-80
2023/04/28 01:58:03;;;;;;;6.90;4.50;;;7.80;99.90;;;;;;4953807;28;20027;-79
2023/04/28 02:00:29;;;;;;;8.00;4.33;;;7.80;99.90;;;;;;4959571;28;20031;-79
2023/04/28 02:02:55;;;;;;;7.77;4.20;;;7.80;99.90;;;;;;4959945;28;20120;-80
2023/04/28 02:05:20;;;;;;;5.63;3.97;;;7.80;99.90;;;;;;4960457;28;20069;-79
2023/04/28 02:07:46;;;;;;;6.80;4.10;;;7.90;99.90;;;;;;4959883;28;20719;-79
2023/04/28 02:10:12;;;;;;;6.80;4.30;;;7.90;99.90;;;;;;4959954;28;20138;-79
2023/04/28 02:12:40;;;;;;;7.20;4.13;;;7.90;99.90;;;;;;4960235;28;20039;-79
2023/04/28 02:15:06;;;;;;;6.07;4.53;;;7.90;99.90;;;;;;4960100;28;20047;-79
2023/04/28 02:17:32;;;;;;;8.90;4.80;;;7.90;99.90;;;;;;4960336;28;20034;-78
2023/04/28 02:19:57;;;;;;;5.97;3.70;;;7.90;99.90;;;;;;4960010;28;20093;-79
2023/04/28 02:22:23;;;;;;;9.13;4.43;;;7.90;99.90;;;;;;4960324;28;20066;-79
2023/04/28 02:24:49;;;;;;;7.83;4.30;;;7.90;99.90;;;;;;4960395;28;20109;-79
2023/04/28 02:27:15;;;;;;;8.70;4.70;;;8.00;99.90;;;;;;4959919;28;20027;-79
2023/04/28 02:29:41;;;;;;;7.83;4.63;;;8.00;99.90;;;;;;4960126;28;20710;-79
2023/04/28 02:32:06;;;;;;;7.03;4.67;;;8.00;99.90;;;;;;4959797;28;20056;-79
2023/04/28 02:34:32;;;;;;;7.27;4.90;;;8.00;99.90;;;;;;4960509;28;20145;-79
2023/04/28 02:36:58;;;;;;;11.00;4.10;;;8.00;99.90;;;;;;4960609;28;20031;-79
2023/04/28 02:39:25;;;;;;;8.30;4.47;;;8.10;99.90;;;;;;4959877;28;20429;-78
2023/04/28 02:41:52;;;;;;;6.90;3.80;;;8.10;99.90;;;;;;4959282;28;20090;-79
2023/04/28 02:44:17;;;;;;;5.27;3.47;;;8.10;99.90;;;;;;4959734;28;20106;-79
2023/04/28 02:46:43;;;;;;;8.50;3.93;;;8.10;99.90;;;;;;4959778;28;20035;-78
2023/04/28 02:49:08;;;;;;;9.23;4.30;;;8.10;99.90;;;;;;4959550;28;20043;-80
2023/04/28 02:51:34;;;;;;;5.30;4.00;;;8.10;99.90;;;;;;4959540;28;20118;-79
2023/04/28 02:54:00;;;;;;;5.50;3.80;;;8.10;99.90;;;;;;4959636;28;20762;-79
2023/04/28 02:56:25;;;;;;;5.43;3.63;;;8.10;99.90;;;;;;4959747;28;20522;-78
2023/04/28 02:58:51;;;;;;;5.47;4.00;;;8.10;99.90;;;;;;4959766;28;20510;-80
2023/04/28 03:01:17;;;;;;;5.07;3.90;;;8.20;99.90;;;;;;4959350;28;20198;-79
2023/04/28 03:03:42;;;;;;;7.67;3.77;;;8.20;99.90;;;;;;4959914;28;20019;-78
2023/04/28 03:06:08;;;;;;;4.97;3.60;;;8.20;99.90;;;;;;4960132;28;20038;-79
2023/04/28 03:08:33;;;;;;;6.10;3.87;;;8.20;99.90;;;;;;4959114;28;20050;-79
2023/04/28 03:10:59;;;;;;;4.93;3.53;;;8.20;99.90;;;;;;4955674;28;20031;-78
2023/04/28 03:13:25;;;;;;;4.60;3.57;;;8.30;99.90;;;;;;4949971;28;20038;-79
2023/04/28 03:15:51;;;;;;;6.30;3.90;;;8.30;99.90;;;;;;4955128;28;20105;-79
2023/04/28 03:18:17;;;;;;;5.77;4.00;;;8.30;99.90;;;;;;4956242;28;20046;-79
2023/04/28 03:20:43;;;;;;;6.73;4.20;;;8.30;99.90;;;;;;4956551;28;20043;-79
2023/04/28 03:23:08;;;;;;;5.27;3.77;;;8.30;99.90;;;;;;4956083;28;20027;-79
2023/04/28 03:25:34;;;;;;;5.17;3.83;;;8.30;99.90;;;;;;4955226;28;20121;-79
2023/04/28 03:28:00;;;;;;;5.80;4.37;;;8.30;99.90;;;;;;4937514;28;20034;-79
2023/04/28 03:30:26;;;;;;;7.17;4.27;;;8.30;99.90;;;;;;4955386;28;20046;-79
2023/04/28 03:32:52;;;;;;;32.03;28.90;;;8.30;99.90;;;;;;4956518;28;20507;-79
2023/04/28 03:35:17;;;;;;;14.97;12.47;;;8.30;99.90;;;;;;4956686;28;20945;-79
2023/04/28 03:37:43;;;;;;;9.13;6.93;;;8.30;99.90;;;;;;4956538;28;20042;-79
2023/04/28 03:40:09;;;;;;;10.53;5.83;;;8.30;99.90;;;;;;4956619;28;20134;-79
2023/04/28 03:42:35;;;;;;;7.87;6.43;;;8.30;99.90;;;;;;4957263;28;20057;-79
2023/04/28 03:45:00;;;;;;;10.63;6.73;;;8.30;99.90;;;;;;4957461;28;20035;-79
2023/04/28 03:47:27;;;;;;;7.97;6.10;;;8.20;99.90;;;;;;4958430;28;20041;-79
2023/04/28 03:49:52;;;;;;;12.03;6.60;;;8.20;99.90;;;;;;4957538;28;20039;-79
2023/04/28 03:52:18;;;;;;;8.93;6.93;;;8.20;99.90;;;;;;4956796;28;20050;-79
2023/04/28 03:54:43;;;;;;;8.27;6.10;;;8.20;99.90;;;;;;4956719;28;20035;-79
2023/04/28 03:57:09;;;;;;;8.87;7.03;;;8.20;99.90;;;;;;4956634;28;20074;-79
2023/04/28 03:59:35;;;;;;;9.60;7.10;;;8.20;99.90;;;;;;4957192;28;20058;-80
2023/04/28 04:02:01;;;;;;;8.93;6.50;;;8.20;99.90;;;;;;4957515;28;20109;-79
2023/04/28 04:04:26;;;;;;;8.73;6.40;;;8.20;99.90;;;;;;4957081;28;20058;-79
2023/04/28 04:06:52;;;;;;;10.47;6.80;;;8.30;99.90;;;;;;4956873;28;20534;-80
2023/04/28 04:09:18;;;;;;;7.80;6.73;;;8.30;99.90;;;;;;4956089;28;20033;-79
2023/04/28 04:11:43;;;;;;;7.40;6.30;;;8.30;99.90;;;;;;4955037;28;20035;-79
2023/04/28 04:14:09;;;;;;;9.63;7.53;;;8.30;99.90;;;;;;4954847;28;20039;-79
2023/04/28 04:16:35;;;;;;;8.60;7.07;;;8.30;99.90;;;;;;4955629;28;20027;-79
2023/04/28 04:19:01;;;;;;;15.33;10.63;;;8.30;99.90;;;;;;4956528;28;20031;-79
2023/04/28 04:21:27;;;;;;;11.73;7.00;;;8.30;99.90;;;;;;4955850;28;20029;-80
2023/04/28 04:23:52;;;;;;;14.70;8.83;;;8.30;99.90;;;;;;4958074;28;20035;-79
2023/04/28 04:26:18;;;;;;;19.40;12.07;;;8.30;99.90;;;;;;4957387;28;20037;-80
2023/04/28 04:28:44;;;;;;;22.37;11.70;;;8.30;99.90;;;;;;4960408;28;20035;-82
2023/04/28 04:31:09;;;;;;;24.53;16.27;;;8.20;99.90;;;;;;4959620;28;20050;-82
2023/04/28 04:33:36;;;;;;;12.73;9.13;;;8.20;99.90;;;;;;4960214;28;20038;-83
2023/04/28 04:36:03;;;;;;;13.60;9.80;;;8.20;99.90;;;;;;4961026;28;20039;-83
2023/04/28 04:38:29;;;;;;;11.63;10.43;;;8.20;99.90;;;;;;4960374;28;20024;-83
2023/04/28 04:40:55;;;;;;;10.00;8.93;;;8.20;99.90;;;;;;4960987;28;20031;-83
2023/04/28 04:43:21;;;;;;;10.43;8.27;;;8.30;99.90;;;;;;4962804;28;20050;-83
2023/04/28 04:45:46;;;;;;;9.90;8.20;;;8.30;99.90;;;;;;4959599;28;20033;-83
2023/04/28 04:48:12;;;;;;;13.07;7.30;;;8.30;99.90;;;;;;4959601;28;20295;-84
2023/04/28 04:50:37;;;;;;;13.27;7.97;;;8.30;99.90;;;;;;4958383;28;20452;-83
2023/04/28 04:53:03;;;;;;;9.20;7.07;;;8.40;99.90;;;;;;4959719;28;20030;-79
2023/04/28 04:55:29;;;;;;;12.70;6.73;;;8.40;99.90;;;;;;4954880;28;20110;-79
2023/04/28 04:57:55;;;;;;;11.13;6.80;;;8.40;99.90;;;;;;4953363;28;20031;-79
2023/04/28 05:00:20;;;;;;;9.00;6.37;;;8.50;99.90;;;;;;4955090;28;20042;-79
2023/04/28 05:02:46;;;;;;;11.83;6.93;;;8.50;99.90;;;;;;4954944;28;20038;-79
2023/04/28 05:05:11;;;;;;;7.97;5.97;;;8.50;99.90;;;;;;4953490;28;20057;-79
2023/04/28 05:07:37;;;;;;;8.60;6.00;;;8.50;99.90;;;;;;4954170;28;20038;-79
2023/04/28 05:10:03;;;;;;;12.80;6.03;;;8.50;99.90;;;;;;4953324;28;20085;-79
2023/04/28 05:12:28;;;;;;;8.63;5.30;;;8.50;99.90;;;;;;4955245;28;20082;-79
2023/04/28 05:14:54;;;;;;;10.03;5.60;;;8.50;99.90;;;;;;4954373;28;20038;-79
2023/04/28 05:17:19;;;;;;;7.60;5.47;;;8.60;99.90;;;;;;4954354;28;20066;-79
2023/04/28 05:19:45;;;;;;;8.83;5.50;;;8.60;99.90;;;;;;4954638;28;20049;-79
2023/04/28 05:22:11;;;;;;;11.43;7.10;;;8.60;99.90;;;;;;4955109;28;20113;-79
2023/04/28 05:24:36;;;;;;;16.63;12.50;;;8.60;99.90;;;;;;4954367;28;20046;-79
2023/04/28 05:27:02;;;;;;;14.73;9.47;;;8.70;99.90;;;;;;4954731;28;20043;-80
2023/04/28 05:29:28;;;;;;;13.50;9.40;;;8.70;99.90;;;;;;4955188;28;20022;-76
2023/04/28 05:31:53;;;;;;;6.87;5.10;;;8.70;99.90;;;;;;4953660;28;20088;-79
2023/04/28 05:34:19;;;;;;;6.37;5.10;;;8.70;99.90;;;;;;4953649;28;20085;-79
2023/04/28 05:36:45;;;;;;;8.53;4.90;;;8.80;99.90;;;;;;4955437;28;20031;-79
2023/04/28 05:39:10;;;;;;;6.97;4.67;;;8.80;99.90;;;;;;4954161;28;20023;-78
2023/04/28 05:41:36;;;;;;;7.87;5.00;;;8.80;99.90;;;;;;4953073;28;20030;-78
2023/04/28 05:44:01;;;;;;;6.93;4.33;;;8.90;99.90;;;;;;4953841;28;21047;-78
2023/04/28 05:46:27;;;;;;;9.53;4.40;;;8.90;99.90;;;;;;4954006;28;20049;-78
2023/04/28 05:48:53;;;;;;;4.80;3.80;;;8.90;99.90;;;;;;4953602;28;20027;-78
2023/04/28 05:51:18;;;;;;;8.23;4.17;;;9.00;99.90;;;;;;4953487;28;20043;-77
2023/04/28 05:53:47;;;;;;;5.83;4.07;;;9.00;99.90;;;;;;4954169;28;20032;-78
2023/04/28 05:56:14;;;;;;;7.20;4.27;;;9.00;99.90;;;;;;4953176;28;20043;-79
2023/04/28 05:58:40;;;;;;;8.03;4.10;;;9.00;99.90;;;;;;4952952;28;20045;-78
2023/04/28 06:01:05;;;;;;;6.53;3.63;;;9.10;99.90;;;;;;4953048;28;20502;-79
2023/04/28 06:03:31;;;;;;;8.17;4.10;;;9.10;99.90;;;;;;4954097;28;20162;-78
2023/04/28 06:05:56;;;;;;;9.33;3.60;;;9.10;99.90;;;;;;4951903;28;20366;-79
2023/04/28 06:08:22;;;;;;;8.90;3.70;;;9.10;99.90;;;;;;4953023;28;20051;-79
2023/04/28 06:10:47;;;;;;;11.77;3.37;;;9.20;99.90;;;;;;4952667;28;20057;-79
2023/04/28 06:13:13;;;;;;;6.67;3.07;;;9.20;99.90;;;;;;4954068;28;20161;-79
2023/04/28 06:15:38;;;;;;;5.47;3.03;;;9.20;99.90;;;;;;4951916;28;20135;-79
2023/04/28 06:18:08;;;;;;;14.03;3.20;;;9.30;99.90;;;;;;4953766;28;20492;-78
2023/04/28 06:20:34;;;;;;;8.50;3.13;;;9.30;99.90;;;;;;4952396;28;20455;-80
2023/04/28 06:23:00;;;;;;;7.40;3.33;;;9.30;99.90;;;;;;4953606;28;20090;-79
2023/04/28 06:25:25;;;;;;;5.53;3.30;;;9.40;99.90;;;;;;4951990;28;20114;-79
2023/04/28 06:27:51;;;;;;;3.90;2.80;;;9.40;99.90;;;;;;4953836;28;20035;-78
2023/04/28 06:30:19;;;;;;;8.03;3.73;;;9.40;99.90;;;;;;4951282;28;20038;-79
2023/04/28 06:32:45;;;;;;;6.83;3.87;;;9.50;99.90;;;;;;4953000;28;20027;-79
2023/04/28 06:35:10;;;;;;;5.63;3.20;;;9.50;99.90;;;;;;4951487;28;20039;-78
2023/04/28 06:37:36;;;;;;;7.50;3.33;;;9.60;99.90;;;;;;4953130;28;20030;-79
2023/04/28 06:40:02;;;;;;;3.63;2.80;;;9.70;99.90;;;;;;4952186;28;20035;-79
2023/04/28 06:42:28;;;;;;;3.67;2.70;;;9.80;99.90;;;;;;4953257;28;20059;-78
2023/04/28 06:44:53;;;;;;;4.60;2.60;;;9.90;99.90;;;;;;4953733;28;20078;-78
2023/04/28 06:47:19;;;;;;;3.90;2.50;;;10.10;99.90;;;;;;4956877;28;20480;-79
2023/04/28 06:49:46;;;;;;;4.53;2.30;;;10.20;99.90;;;;;;4956344;28;20058;-79
2023/04/28 06:52:13;;;;;;;3.43;2.00;;;10.40;99.90;;;;;;4956948;28;20023;-78
2023/04/28 06:54:38;;;;;;;3.87;1.90;;;10.60;99.90;;;;;;4956437;28;20035;-78
2023/04/28 06:57:04;;;;;;;2.87;2.00;;;10.80;99.90;;;;;;4956356;28;20030;-78
2023/04/28 06:59:30;;;;;;;2.60;2.00;;;11.00;99.90;;;;;;4956409;28;20031;-78
2023/04/28 07:01:55;;;;;;;2.93;1.83;;;11.30;99.90;;;;;;4956775;28;20022;-78
2023/04/28 07:04:21;;;;;;;4.90;1.90;;;11.50;99.90;;;;;;4956802;28;20038;-79
2023/04/28 07:06:47;;;;;;;2.17;1.37;;;11.70;99.90;;;;;;4957011;28;20791;-78
2023/04/28 07:09:12;;;;;;;1.83;1.17;;;11.80;99.90;;;;;;4955696;28;20542;-79
2023/04/28 07:11:38;;;;;;;1.43;1.10;;;11.90;99.90;;;;;;4956610;28;20458;-79
2023/04/28 07:14:03;;;;;;;2.75;1.30;;;12.00;99.90;;;;;;4956604;28;20496;-79
2023/04/28 07:16:29;;;;;;;1.40;1.00;;;12.10;99.90;;;;;;4956884;28;20046;-78
2023/04/28 07:18:55;;;;;;;1.45;1.10;;;12.10;99.90;;;;;;4956223;28;20038;-79
2023/04/28 07:21:21;;;;;;;1.63;1.10;;;12.20;99.90;;;;;;4956300;28;20027;-79
2023/04/28 07:23:47;;;;;;;3.45;1.17;;;12.20;99.90;;;;;;4955635;28;21314;-78
2023/04/28 07:26:15;;;;;;;1.35;1.00;;;12.20;99.90;;;;;;4955180;28;20035;-79
2023/04/28 07:28:41;;;;;;;1.80;1.10;;;12.30;99.90;;;;;;4957100;28;20093;-79
2023/04/28 07:31:06;;;;;;;2.80;1.35;;;12.30;99.90;;;;;;4956587;28;20030;-79
2023/04/28 07:33:32;;;;;;;2.45;1.30;;;12.30;99.90;;;;;;4956430;28;20031;-79
2023/04/28 07:35:57;;;;;;;1.40;1.08;;;12.30;99.90;;;;;;4956517;28;20105;-78
2023/04/28 07:38:23;;;;;;;2.60;1.20;;;12.40;99.90;;;;;;4956013;28;20800;-79
2023/04/28 07:40:48;;;;;;;3.53;1.23;;;12.40;99.90;;;;;;4956018;28;20451;-79
2023/04/28 07:43:14;;;;;;;3.25;1.17;;;12.40;99.90;;;;;;4956055;28;20503;-79
2023/04/28 07:45:40;;;;;;;3.03;1.23;;;12.40;99.90;;;;;;4956366;28;21539;-79
2023/04/28 07:48:05;;;;;;;3.47;1.50;;;12.40;99.90;;;;;;4956449;28;20035;-79
2023/04/28 07:50:31;;;;;;;1.80;1.45;;;12.30;99.90;;;;;;4955219;28;20019;-79
2023/04/28 07:52:57;;;;;;;2.30;1.50;;;12.30;99.90;;;;;;4956444;28;20039;-79
2023/04/28 07:55:23;;;;;;;1.92;1.40;;;12.20;99.90;;;;;;4955916;28;20089;-79
2023/04/28 07:57:49;;;;;;;2.72;1.33;;;12.20;99.90;;;;;;4955083;28;20038;-79
2023/04/28 08:00:15;;;;;;;2.80;1.40;;;12.10;99.90;;;;;;4955178;28;20492;-79
2023/04/28 08:02:40;;;;;;;2.83;1.40;;;12.10;99.90;;;;;;4956130;28;20081;-79
2023/04/28 08:05:07;;;;;;;2.13;1.35;;;12.10;99.90;;;;;;4955370;28;20039;-78
2023/04/28 08:07:33;;;;;;;3.22;1.95;;;12.00;99.90;;;;;;4955782;28;20062;-79
2023/04/28 08:10:00;;;;;;;3.03;1.45;;;12.00;99.90;;;;;;4954601;28;20480;-79
2023/04/28 08:12:26;;;;;;;3.53;1.70;;;12.00;99.90;;;;;;4955777;28;20117;-79
2023/04/28 08:14:51;;;;;;;2.67;1.70;;;12.00;99.90;;;;;;4955852;28;20054;-79
2023/04/28 08:17:17;;;;;;;2.67;1.25;;;11.90;99.90;;;;;;4955646;28;20037;-79
2023/04/28 08:19:45;;;;;;;4.25;1.65;;;11.90;99.90;;;;;;4954806;28;21427;-78
2023/04/28 08:22:11;;;;;;;2.83;1.67;;;11.90;99.90;;;;;;4955494;28;20188;-78
2023/04/28 08:24:36;;;;;;;4.32;1.58;;;11.90;99.90;;;;;;4954820;28;21493;-79
2023/04/28 08:27:02;;;;;;;3.75;1.83;;;11.80;99.90;;;;;;4955294;28;20027;-78
2023/04/28 08:29:29;;;;;;;3.80;1.60;;;11.80;99.90;;;;;;4954752;28;20408;-80
2023/04/28 08:31:55;;;;;;;2.05;1.70;;;11.70;99.90;;;;;;4955332;28;20050;-79
2023/04/28 08:34:20;;;;;;;2.10;1.48;;;11.70;99.90;;;;;;4954462;28;20034;-78
2023/04/28 08:36:46;;;;;;;4.82;1.35;;;11.60;99.90;;;;;;4955164;28;20050;-78
2023/04/28 08:39:11;;;;;;;4.72;1.58;;;11.50;99.90;;;;;;4955028;28;20064;-79
2023/04/28 08:41:38;;;;;;;6.15;2.10;;;11.50;99.90;;;;;;4954260;28;20474;-79
2023/04/28 08:44:11;;;;;;;5.35;1.63;;;11.50;99.90;;;;;;4954508;28;20060;-79
2023/04/28 08:46:41;;;;;;;3.20;1.58;;;11.50;99.90;;;;;;4954575;28;20061;-78
2023/04/28 08:49:12;;;;;;;5.40;1.50;;;11.50;99.90;;;;;;4955351;28;20023;-78
2023/04/28 08:51:44;;;;;;;2.13;1.33;;;11.50;99.90;;;;;;4954817;28;20058;-79
2023/04/28 08:54:15;;;;;;;1.83;1.23;;;11.50;99.90;;;;;;4953579;28;20495;-79
2023/04/28 08:56:44;;;;;;;3.67;1.97;;;11.60;99.90;;;;;;4954373;28;20043;-78
2023/04/28 08:59:10;;;;;;;3.10;1.45;;;11.60;99.90;;;;;;4953755;28;20038;-80
2023/04/28 09:01:36;;;;;;;2.53;1.38;;;11.70;99.90;;;;;;4953935;28;20134;-78
2023/04/28 09:04:02;;;;;;;2.70;1.50;;;11.70;99.90;;;;;;4954470;28;20031;-78
2023/04/28 09:06:35;;;;;;;3.88;1.60;;;11.70;99.90;;;;;;4953638;28;20475;-78
2023/04/28 09:09:20;;;;;;;2.85;1.33;;;11.80;99.90;;;;;;4953189;28;20034;-78
2023/04/28 09:12:02;;;;;;;2.75;1.40;;;11.90;99.90;;;;;;4953331;28;20053;-78
2023/04/28 09:14:31;;;;;;;3.88;1.50;;;11.90;99.90;;;;;;4954677;28;20077;-78
2023/04/28 09:16:57;;;;;;;5.10;1.60;;;11.90;99.90;;;;;;4954360;28;20472;-78
2023/04/28 09:19:31;;;;;;;2.30;1.40;;;12.00;99.90;;;;;;4953817;28;20113;-79
2023/04/28 09:21:57;;;;;;;2.83;1.50;;;11.90;99.90;;;;;;4954714;28;20078;-79
2023/04/28 09:24:30;;;;;;;4.60;1.67;;;11.90;99.90;;;;;;4954351;28;20480;-78
2023/04/28 09:26:56;;;;;;;2.85;1.70;;;11.90;99.90;;;;;;4954285;28;21015;-78
2023/04/28 09:29:22;;;;;;;3.25;1.60;;;11.80;99.90;;;;;;4953539;28;20042;-79
2023/04/28 09:31:48;;;;;;;1.70;1.33;;;11.70;99.90;;;;;;4954616;28;20404;-79
2023/04/28 09:34:14;;;;;;;3.35;1.60;;;11.70;99.90;;;;;;4954659;28;20097;-79
2023/04/28 09:36:40;;;;;;;4.45;1.40;;;11.70;99.90;;;;;;4954462;28;20070;-79
2023/04/28 09:39:06;;;;;;;2.83;1.60;;;11.60;99.90;;;;;;4954415;28;20066;-79
2023/04/28 09:41:39;;;;;;;3.25;1.60;;;11.60;99.90;;;;;;4953361;28;20741;-79
2023/04/28 09:44:20;;;;;;;3.45;1.50;;;11.60;99.90;;;;;;4954683;28;20058;-79
2023/04/28 09:46:46;;;;;;;3.10;1.45;;;11.60;99.90;;;;;;4953915;28;20031;-79
2023/04/28 09:49:13;;;;;;;6.35;1.60;;;11.60;99.90;;;;;;4954381;28;20027;-80
2023/04/28 09:51:39;;;;;;;3.28;1.70;;;11.60;99.90;;;;;;4953449;28;20046;-79
2023/04/28 09:54:05;;;;;;;2.53;1.70;;;11.60;99.90;;;;;;4953630;28;20030;-79
2023/04/28 09:56:32;;;;;;;2.22;1.33;;;11.60;99.90;;;;;;4954176;28;20644;-79
2023/04/28 09:58:59;;;;;;;2.45;1.48;;;11.60;99.90;;;;;;4954354;28;20035;-79
2023/04/28 10:01:32;;;;;;;3.97;1.63;;;11.60;99.90;;;;;;4953987;28;20092;-79
2023/04/28 10:04:01;;;;;;;2.17;1.42;;;11.60;99.90;;;;;;4953781;28;20023;-79
2023/04/28 10:06:28;;;;;;;2.17;1.40;;;11.60;99.90;;;;;;4953697;28;21444;-79
2023/04/28 10:08:56;;;;;;;4.28;1.60;;;11.60;99.90;;;;;;4954144;28;20035;-79
2023/04/28 10:11:24;;;;;;;3.80;1.63;;;11.60;99.90;;;;;;4953157;28;20062;-79
2023/04/28 10:13:50;;;;;;;3.40;1.40;;;11.60;99.90;;;;;;4953824;28;20141;-79
2023/04/28 10:16:17;;;;;;;2.28;1.40;;;11.60;99.90;;;;;;4953586;28;20555;-79
2023/04/28 10:18:44;;;;;;;1.73;1.20;;;11.70;99.90;;;;;;4953914;28;20023;-80
2023/04/28 10:21:11;;;;;;;2.40;1.40;;;11.70;99.90;;;;;;4956962;28;20027;-79
2023/04/28 10:23:59;;;;;;;4.10;1.30;;;11.70;99.90;;;;;;4958578;28;20325;-79
2023/04/28 10:26:52;;;;;;;3.53;2.10;;;11.80;99.90;;;;;;4958530;28;20117;-79
2023/04/28 10:29:23;;;;;;;3.53;1.40;;;11.80;99.90;;;;;;4956883;28;20035;-81
2023/04/28 10:32:14;;;;;;;2.45;1.20;;;11.90;99.90;;;;;;4957458;28;20047;-79
2023/04/28 10:34:39;;;;;;;2.15;1.10;;;11.90;99.90;;;;;;4957349;28;20101;-79
2023/04/28 10:37:05;;;;;;;2.80;1.23;;;12.00;99.90;;;;;;4957486;28;20078;-79
2023/04/28 10:39:31;;;;;;;2.00;1.10;;;12.00;99.90;;;;;;4956630;28;20042;-80
2023/04/28 10:41:56;;;;;;;2.30;1.50;;;12.00;99.90;;;;;;4956487;28;20057;-79
2023/04/28 10:44:31;;;;;;;3.97;1.20;;;12.00;99.90;;;;;;4954367;28;20031;-80
2023/04/28 10:47:03;;;;;;;;;;;12.00;99.90;;;;;;4954361;28;20097;-79
2023/04/28 10:49:54;;;;;;;4.60;3.40;;;11.90;99.90;;;;;;4952716;28;20227;-79
2023/04/28 10:52:32;;;;;;;3.20;1.30;;;11.90;99.90;;;;;;4953182;28;20114;-79
2023/04/28 10:55:25;;;;;;;2.17;1.40;;;11.90;99.90;;;;;;4952376;28;20043;-80
2023/04/28 10:58:19;;;;;;;3.95;1.20;;;11.90;99.90;;;;;;4957887;28;20115;-79
2023/04/28 11:00:49;;;;;;;3.97;1.40;;;12.00;99.90;;;;;;4956615;28;20030;-79
2023/04/28 11:03:37;;;;;;;1.92;1.30;;;12.00;99.90;;;;;;4956852;28;20027;-79
2023/04/28 11:06:27;;;;;;;3.97;1.42;;;12.00;99.90;;;;;;4956609;28;20086;-79
2023/04/28 11:09:02;;;;;;;3.85;1.10;;;12.00;99.90;;;;;;4956838;28;20030;-80
2023/04/28 11:11:35;;;;;;;3.08;1.40;;;12.10;99.90;;;;;;4956307;28;20027;-80
2023/04/28 11:14:16;;;;;;;3.03;1.67;;;11.90;99.90;;;;;;4956831;28;20038;-79
2023/04/28 11:16:58;;;;;;;4.07;1.27;;;11.90;99.90;;;;;;4957107;28;20062;-79
2023/04/28 11:19:32;;;;;;;2.60;1.58;;;11.80;99.90;;;;;;4956057;28;20034;-80
2023/04/28 11:21:59;;;;;;;3.28;1.48;;;11.70;99.90;;;;;;4956278;28;20038;-79
2023/04/28 11:24:28;;;;;;;2.85;1.20;;;11.70;99.90;;;;;;4955979;28;20047;-79
2023/04/28 11:26:54;;;;;;;3.90;1.35;;;11.80;99.90;;;;;;4956016;28;20031;-79
2023/04/28 11:29:39;;;;;;;2.40;1.48;;;11.80;99.90;;;;;;4956014;28;20035;-79
2023/04/28 11:32:07;;;;;;;2.88;1.42;;;11.80;99.90;;;;;;4954508;28;20034;-79
2023/04/28 11:34:33;;;;;;;2.33;1.35;;;11.90;99.90;;;;;;4955869;28;20130;-79
2023/04/28 11:36:59;;;;;;;3.40;1.65;;;11.90;99.90;;;;;;4955896;28;20309;-79
2023/04/28 11:39:29;;;;;;;3.67;1.35;;;12.00;99.90;;;;;;4955258;28;20046;-79
2023/04/28 11:41:56;;;;;;;3.15;1.45;;;12.10;99.90;;;;;;4955296;28;20022;-80
2023/04/28 11:44:27;;;;;;;1.35;1.13;;;12.20;99.90;;;;;;4955970;28;20723;-79
2023/04/28 11:47:01;;;;;;;4.00;1.30;;;12.20;99.90;;;;;;4955344;28;20516;-79
2023/04/28 11:49:32;;;;;;;2.33;1.17;;;12.20;99.90;;;;;;4954843;28;21349;-79
2023/04/28 11:52:04;;;;;;;2.45;1.17;;;12.30;99.90;;;;;;4956278;28;20128;-79
2023/04/28 11:54:30;;;;;;;3.83;1.40;;;12.40;99.90;;;;;;4955856;28;20049;-79
2023/04/28 11:56:57;;;;;;;2.22;1.20;;;12.40;99.90;;;;;;4956386;28;20031;-79
2023/04/28 11:59:34;;;;;;;2.53;1.20;;;12.50;99.90;;;;;;4955822;28;20031;-79
2023/04/28 12:02:05;;;;;;;3.90;1.52;;;12.60;99.90;;;;;;4956046;28;20019;-80
2023/04/28 12:04:39;;;;;;;1.77;1.20;;;12.60;99.90;;;;;;4955864;28;20059;-79
2023/04/28 12:07:12;;;;;;;3.70;1.43;;;12.60;99.90;;;;;;4938676;28;20563;-79
2023/04/28 12:09:40;;;;;;;2.05;1.48;;;12.60;99.90;;;;;;4955110;28;20677;-79
2023/04/28 12:12:07;;;;;;;2.47;1.58;;;12.60;99.90;;;;;;4955879;28;20488;-79
2023/04/28 12:15:00;;;;;;;2.72;1.52;;;12.60;99.90;;;;;;4955085;28;21071;-79
2023/04/28 12:17:31;;;;;;;5.20;3.72;;;12.60;99.90;;;;;;4955732;28;20423;-80
2023/04/28 12:19:58;;;;;;;3.20;1.60;;;12.70;99.90;;;;;;4955307;28;20689;-79
2023/04/28 12:22:25;;;;;;;2.08;1.35;;;12.70;99.90;;;;;;4955393;28;20035;-80
2023/04/28 12:25:03;;;;;;;2.47;1.42;;;12.70;99.90;;;;;;4954454;28;20035;-79
2023/04/28 12:27:29;;;;;;;3.65;1.40;;;12.80;99.90;;;;;;4954941;28;20031;-80
2023/04/28 12:29:55;;;;;;;3.65;1.48;;;12.90;99.90;;;;;;4954481;28;20036;-79
2023/04/28 12:32:40;;;;;;;2.47;1.40;;;13.00;99.90;;;;;;4955346;28;20035;-78
2023/04/28 12:35:06;;;;;;;3.30;1.40;;;13.10;99.90;;;;;;4955727;28;20160;-79
2023/04/28 12:37:32;;;;;;;6.10;1.90;;;13.20;99.90;;;;;;4955187;28;20134;-79
2023/04/28 12:39:57;;;;;;;4.53;1.50;;;13.30;99.90;;;;;;4953885;28;20833;-79
2023/04/28 12:42:23;;;;;;;7.10;1.50;;;13.30;99.90;;;;;;4954622;28;20090;-79
2023/04/28 12:44:49;;;;;;;2.10;1.50;;;13.50;99.90;;;;;;4954399;28;20085;-80
2023/04/28 12:47:17;;;;;;;2.33;1.38;;;13.40;99.90;;;;;;4954481;28;20035;-79
2023/04/28 12:49:43;;;;;;;3.20;1.48;;;13.40;99.90;;;;;;4952966;28;20035;-79
2023/04/28 12:52:09;;;;;;;2.97;1.77;;;13.50;99.90;;;;;;4955323;28;20030;-79